首页
METAR-TAF:

METAR-TAF

机场 :

香槟沙隆, 法国

纬度: 48-46-34N, 经度: 004-11-04E, 海拔: 179米

当前天气观测

该预报发布于32分钟前的16:00 UTC
风速16节,风向西转西南
温度 15°C
湿度 82%
气压 1000 hPa
能见度10公里或以上
少量云层高于1700英尺
多云层高于6200英尺
阴天层高于7600英尺

METAR: LFOK 051600Z AUTO 24016KT 9999 FEW017 BKN062 OVC076 15/12 Q1000 TEMPO 26020G30KT 2000 TSRA BKN025CB

时间: 18:32 (16:32 UTC)

预报

该预报发布于5小时和32分钟前的11:00 UTC
预报有效从05日的 12点(UTC)到 06日的 12点(UTC)
风速12节,风向西南
能见度10公里或以上
多云层高于1200英尺
成为
从 05日的 12点(UTC)到 05日的 13点(UTC)
多云层高于2000英尺
短暂存在
从 05日的 12点(UTC)到 05日的 20点(UTC)
能見度: 4000
多云层高于2500英尺, 塔状积云.
阵雨
几率 30% :
短暂存在
从 05日的 12点(UTC)到 05日的 19点(UTC)
能見度: 2000
多云层高于2500英尺, 积雨云.
雷暴, 雨
短暂存在
从 05日的 14点(UTC)到 05日的 17点(UTC)
风速20节,风向西,有时为30节阵风
短暂存在
从 05日的 23点(UTC)到 06日的 07点(UTC)
能見度: 2000
多云层高于700英尺
多云层高于2000英尺, 塔状积云.

TAF: LFOK 051100Z 0512/0612 22012KT 9999 BKN012 BECMG 0512/0513 BKN020 TEMPO 0512/0520 4000 SHRA BKN025TCU PROB30 TEMPO 0512/0519 2000 TSRA BKN025CB TEMPO 0514/0517 26020G30KT TEMPO 0523/0607 2000 RA BKN007 BKN020TCU

超过4000个机场的气象观测和天气预报(METAR&TAF报告)。

可查询的气象台以黄色和红色小点在地图上表示。

将鼠标移到小点上方,可查看气象台名称。

然后点击查看天气观测和预报。

如需切换地图:点击带黑十字的绿色按钮放大地图;点击带横线的绿色按钮缩小地图;或者点击绿色箭头查看邻近地区的地图。


METAR-TAF: